Terminal Aerodrome Forecast
Issued by NWS

Home | Current Version | Previous Version | Text Only | Print | Product List | Glossary On
Versions: 1 2 3 4 5 6 7 8 9 10 11 12 13 14 15 16 17 18 19 20 21 22 23 24 25 26 27
151
FTUS41 KILN 291504 AAB
TAFLUK
TAF AMD
KLUK 291504Z 2915/3012 10006KT P6SM SCT050 BKN100
     FM292000 10005KT P6SM FEW040 SCT250
     FM300100 13004KT P6SM VCSH BKN060
     FM300700 19007KT P6SM BKN250 WS020/21035KT=

USA.gov is the U.S. government's official web portal to all federal, state and local government web resources and services.